Time;durP1;ratioP1;P1;durP2;ratioP2;P2;SDS_P1;SDS_P2;PMS_P1;PMS_P2;Temp;Humidity;BMP_temperature;BMP_pressure;BME280_temperature;BME280_humidity;BME280_pressure;Samples;Min_cycle;Max_cycle;Signal;HPM_P1;HPM_P2
2022/01/02 00:00:44;;;;;;;8.60;5.22;;;;;;;3.63;89.39;96443.78;4825579;29;20065;-41
2022/01/02 00:03:38;;;;;;;7.72;4.90;;;;;;;3.64;89.33;96436.56;4826625;29;20469;-43
2022/01/02 00:06:25;;;;;;;8.43;4.70;;;;;;;3.39;90.17;96438.28;4823856;29;20153;-44
2022/01/02 00:09:19;;;;;;;8.73;4.90;;;;;;;3.42;90.10;96436.94;4824861;29;20524;-45
2022/01/02 00:12:31;;;;;;;11.02;5.15;;;;;;;4.35;84.41;96430.75;4824779;29;20119;-39
2022/01/02 00:15:20;;;;;;;8.68;4.95;;;;;;;4.80;81.75;96412.69;4824863;29;20053;-44
2022/01/02 00:18:10;;;;;;;9.35;5.00;;;;;;;5.12;80.08;96419.34;4824142;29;20058;-45
2022/01/02 00:20:59;;;;;;;8.32;4.78;;;;;;;5.31;78.91;96422.88;4823614;29;20627;-44
2022/01/02 00:24:06;;;;;;;10.40;5.82;;;;;;;5.36;77.98;96409.41;4824735;29;20206;-44
2022/01/02 00:26:51;;;;;;;9.85;5.35;;;;;;;5.43;78.54;96401.00;4836019;29;20200;-41
2022/01/02 00:29:41;;;;;;;9.27;5.40;;;;;;;5.68;76.78;96399.06;4823714;29;20105;-43
2022/01/02 00:32:27;;;;;;;8.77;5.20;;;;;;;5.56;77.18;96402.97;4823492;29;20445;-43
2022/01/02 00:35:13;;;;;;;9.95;5.70;;;;;;;5.59;77.26;96393.56;4823973;29;20061;-47
2022/01/02 00:37:58;;;;;;;8.50;4.88;;;;;;;4.59;82.75;96393.31;4823858;29;20052;-45
2022/01/02 00:40:45;;;;;;;8.93;5.00;;;;;;;3.80;88.40;96399.81;4822834;29;20581;-46
2022/01/02 00:43:48;;;;;;;12.40;5.57;;;;;;;3.88;88.83;96381.28;4824179;29;20069;-45
2022/01/02 00:46:36;;;;;;;11.10;5.25;;;;;;;3.48;90.06;96385.81;4823144;29;20056;-47
2022/01/02 00:49:25;;;;;;;9.88;5.25;;;;;;;3.42;91.00;96386.13;4840028;29;20053;-47
2022/01/02 00:52:19;;;;;;;9.93;5.70;;;;;;;3.24;91.93;96380.28;4831990;29;20091;-48
2022/01/02 00:55:07;;;;;;;9.60;5.67;;;;;;;3.50;92.79;96385.53;4822717;29;20531;-41
2022/01/02 00:58:12;;;;;;;9.98;4.97;;;;;;;4.63;83.91;96385.50;4823778;29;20191;-45
2022/01/02 01:01:03;;;;;;;9.98;5.53;;;;;;;4.29;86.67;96383.69;4822847;29;20523;-43
2022/01/02 01:03:53;;;;;;;11.55;5.35;;;;;;;3.79;89.25;96390.19;4822840;29;20064;-43
2022/01/02 01:06:41;;;;;;;10.48;6.25;;;;;;;3.41;91.32;96389.84;4823524;29;20053;-44
2022/01/02 01:09:27;;;;;;;8.95;5.07;;;;;;;3.56;90.79;96389.78;4822744;29;20053;-45
2022/01/02 01:12:13;;;;;;;9.15;5.10;;;;;;;3.22;92.11;96387.00;4835608;29;20111;-45
2022/01/02 01:14:58;;;;;;;8.13;4.88;;;;;;;3.36;91.56;96388.00;4823512;29;20068;-45
2022/01/02 01:17:43;;;;;;;8.23;5.28;;;;;;;4.48;83.96;96389.13;4822657;29;20058;-44
2022/01/02 01:20:32;;;;;;;9.60;5.68;;;;;;;4.85;81.39;96388.50;4823098;29;20646;-40
2022/01/02 01:23:18;;;;;;;9.85;4.95;;;;;;;3.96;87.00;96390.59;4840483;29;20065;-42
2022/01/02 01:26:07;;;;;;;8.65;4.63;;;;;;;3.71;88.41;96384.34;4841687;29;20535;-42
2022/01/02 01:28:52;;;;;;;8.77;5.00;;;;;;;3.56;89.12;96397.00;4842814;29;20049;-40
2022/01/02 01:31:38;;;;;;;6.72;4.32;;;;;;;3.54;89.37;96397.28;4840994;29;20057;-41
2022/01/02 01:34:23;;;;;;;7.65;4.88;;;;;;;4.76;81.92;96402.81;4840830;29;20064;-41
2022/01/02 01:37:09;;;;;;;7.50;4.60;;;;;;;5.08;79.49;96394.97;4840334;29;20131;-42
2022/01/02 01:39:57;;;;;;;9.85;4.32;;;;;;;5.27;78.03;96391.53;4822228;29;20081;-40
2022/01/02 01:42:56;;;;;;;9.20;5.40;;;;;;;5.14;79.16;96379.63;4823018;29;20126;-44
2022/01/02 01:45:42;;;;;;;9.45;4.95;;;;;;;3.66;87.04;96383.56;4823808;29;20135;-43
2022/01/02 01:48:28;;;;;;;9.15;5.10;;;;;;;3.57;88.67;96382.56;4840375;29;20172;-41
2022/01/02 01:51:13;;;;;;;6.22;4.28;;;;;;;3.72;87.13;96380.59;4837180;29;20072;-40
2022/01/02 01:53:58;;;;;;;7.22;4.43;;;;;;;4.12;85.19;96368.00;4822438;29;20521;-43
2022/01/02 01:56:46;;;;;;;7.38;4.28;;;;;;;4.75;81.55;96372.53;4822062;29;20061;-42
2022/01/02 01:59:32;;;;;;;8.27;4.60;;;;;;;4.46;82.47;96364.50;4822087;29;20052;-43
2022/01/02 02:02:17;;;;;;;7.25;4.15;;;;;;;4.32;82.49;96359.00;4823008;29;20408;-42
2022/01/02 02:05:04;;;;;;;8.45;3.78;;;;;;;3.99;84.73;96366.75;4823091;29;20069;-42
2022/01/02 02:07:50;;;;;;;7.80;4.05;;;;;;;4.61;81.12;96355.50;4823600;29;20105;-41
2022/01/02 02:10:40;;;;;;;6.47;3.70;;;;;;;4.42;81.30;96348.19;4821388;29;20065;-48
2022/01/02 02:13:29;;;;;;;8.30;4.10;;;;;;;4.22;81.44;96343.00;4822154;29;20064;-42
2022/01/02 02:16:19;;;;;;;6.95;3.53;;;;;;;4.35;81.14;96342.34;4822917;29;20057;-41
2022/01/02 02:19:05;;;;;;;6.55;3.45;;;;;;;4.89;78.96;96338.59;4822902;29;20045;-39
2022/01/02 02:21:50;;;;;;;5.32;2.97;;;;;;;4.13;81.32;96331.31;4840831;29;20065;-39
2022/01/02 02:24:37;;;;;;;4.72;3.30;;;;;;;4.00;81.61;96327.41;4839830;29;20060;-39
2022/01/02 02:27:23;;;;;;;4.57;2.92;;;;;;;4.51;79.56;96320.78;4839904;29;20507;-40
2022/01/02 02:30:08;;;;;;;4.90;2.83;;;;;;;4.73;79.13;96321.06;4835833;29;20117;-41
2022/01/02 02:32:56;;;;;;;5.20;2.60;;;;;;;4.32;79.48;96328.72;4822554;29;20145;-39
2022/01/02 02:35:46;;;;;;;5.43;2.92;;;;;;;4.13;79.22;96318.72;4821600;29;20149;-39
2022/01/02 02:38:32;;;;;;;4.47;2.40;;;;;;;4.99;75.98;96320.78;4821103;29;20249;-44
2022/01/02 02:41:20;;;;;;;5.68;2.63;;;;;;;4.71;75.82;96307.16;4820703;29;20060;-44
2022/01/02 02:44:17;;;;;;;5.18;2.50;;;;;;;4.35;77.68;96310.19;4821719;29;20366;-44
2022/01/02 02:50:06;;;;;;;4.15;2.42;;;;;;;5.38;72.94;96299.09;4821836;29;20054;-41
2022/01/02 02:52:54;;;;;;;4.43;2.33;;;;;;;5.49;72.03;96303.25;4822399;29;20065;-42
2022/01/02 02:55:45;;;;;;;4.30;1.95;;;;;;;5.45;72.22;96293.38;4821297;29;20065;-45
2022/01/02 03:01:25;;;;;;;4.75;2.28;;;;;;;5.49;69.91;96272.91;4821110;29;20531;-47
2022/01/02 03:04:11;;;;;;;3.70;1.92;;;;;;;5.04;71.26;96278.63;4834378;29;20139;-43
2022/01/02 03:06:57;;;;;;;3.83;2.20;;;;;;;5.48;70.70;96287.41;4823036;29;20154;-42
2022/01/02 03:09:48;;;;;;;2.75;1.52;;;;;;;5.62;69.89;96281.03;4839298;29;20110;-42
2022/01/02 03:12:36;;;;;;;3.23;1.70;;;;;;;5.73;69.32;96267.47;4828645;29;20449;-44
2022/01/02 03:15:22;;;;;;;2.15;1.40;;;;;;;5.60;69.25;96296.63;4842219;29;20280;-42
2022/01/02 03:18:07;;;;;;;2.40;1.50;;;;;;;5.80;68.18;96284.78;4823422;29;20073;-43
2022/01/02 03:20:53;;;;;;;2.83;1.48;;;;;;;5.86;68.06;96277.44;4823724;29;20575;-42
2022/01/02 03:23:39;;;;;;;2.20;1.30;;;;;;;5.57;69.23;96269.56;4823362;29;20062;-43
2022/01/02 03:26:25;;;;;;;2.90;1.52;;;;;;;5.56;69.14;96270.66;4836116;29;20110;-42
2022/01/02 03:29:11;;;;;;;3.72;1.52;;;;;;;5.90;67.61;96264.22;4824506;29;20110;-42
2022/01/02 03:31:56;;;;;;;2.80;1.58;;;;;;;6.17;67.40;96256.25;4838669;29;20056;-42
2022/01/02 03:34:42;;;;;;;4.57;1.85;;;;;;;5.46;67.50;96252.00;4842419;29;20086;-41
2022/01/02 03:37:28;;;;;;;3.85;1.52;;;;;;;5.68;67.92;96259.47;4841254;29;20065;-42
2022/01/02 03:40:14;;;;;;;3.17;1.70;;;;;;;5.38;68.85;96265.00;4836238;29;20057;-43
2022/01/02 03:42:59;;;;;;;2.45;1.33;;;;;;;5.33;67.69;96261.59;4823009;29;20138;-45
2022/01/02 03:45:44;;;;;;;3.95;1.52;;;;;;;4.80;69.27;96267.13;4823970;29;20061;-41
2022/01/02 03:48:32;;;;;;;3.75;1.38;;;;;;;4.62;70.20;96271.38;4822801;29;20061;-43
2022/01/02 03:51:22;;;;;;;2.80;1.48;;;;;;;5.28;69.47;96267.03;4822292;29;20053;-40
2022/01/02 03:54:08;;;;;;;2.72;1.38;;;;;;;5.78;68.19;96252.03;4824335;29;20057;-40
2022/01/02 03:56:54;;;;;;;3.78;1.65;;;;;;;5.82;68.24;96239.66;4836221;29;20053;-39
2022/01/02 03:59:39;;;;;;;2.85;1.35;;;;;;;5.87;67.63;96230.69;4822375;29;20053;-39
2022/01/02 04:02:25;;;;;;;2.20;1.30;;;;;;;5.90;67.58;96224.75;4823199;29;20187;-40
2022/01/02 04:05:14;;;;;;;2.80;1.40;;;;;;;5.26;68.45;96237.81;4824044;29;20069;-40
2022/01/02 04:08:00;;;;;;;3.17;1.65;;;;;;;4.73;71.38;96226.47;4823352;29;20504;-39
2022/01/02 04:10:45;;;;;;;3.40;1.52;;;;;;;5.24;69.78;96234.63;4822290;29;20543;-43
2022/01/02 04:13:30;;;;;;;2.25;1.33;;;;;;;4.56;70.88;96235.00;4824381;29;20055;-38
2022/01/02 04:16:16;;;;;;;2.83;1.63;;;;;;;4.96;70.53;96230.19;4784442;29;1155607;-38
2022/01/02 04:19:02;;;;;;;2.30;1.20;;;;;;;4.40;71.34;96232.47;4823340;29;20836;-44
2022/01/02 04:21:48;;;;;;;2.45;1.50;;;;;;;4.23;71.96;96232.13;4829681;29;20060;-41
2022/01/02 04:24:33;;;;;;;2.40;1.30;;;;;;;4.38;71.91;96233.84;4844649;29;20534;-43
2022/01/02 04:27:20;;;;;;;2.83;1.42;;;;;;;4.77;70.09;96214.09;4842150;29;20061;-44
2022/01/02 04:30:09;;;;;;;2.30;1.23;;;;;;;4.08;72.42;96221.56;4842390;29;20519;-43
2022/01/02 04:32:54;;;;;;;3.28;1.40;;;;;;;4.70;70.74;96214.44;4838113;29;20540;-42
2022/01/02 04:35:40;;;;;;;2.95;1.45;;;;;;;4.24;71.69;96217.66;4823424;29;20413;-38
2022/01/02 04:38:26;;;;;;;2.65;1.45;;;;;;;3.93;72.86;96223.31;4823052;29;20053;-40
2022/01/02 04:41:12;;;;;;;2.88;1.42;;;;;;;4.58;71.39;96212.19;4830433;29;20065;-38
2022/01/02 04:43:57;;;;;;;2.65;1.38;;;;;;;5.15;68.93;96215.69;4841576;29;20202;-38
2022/01/02 04:46:42;;;;;;;2.45;1.33;;;;;;;5.35;68.11;96201.19;4842445;29;20110;-40
2022/01/02 04:49:28;;;;;;;3.25;1.52;;;;;;;5.49;68.14;96213.84;4841754;29;20133;-45
2022/01/02 04:52:15;;;;;;;2.60;1.45;;;;;;;4.95;69.76;96213.31;4822458;29;20065;-39
2022/01/02 04:55:01;;;;;;;2.65;1.33;;;;;;;5.01;70.32;96197.97;4836229;29;20119;-39
2022/01/02 04:57:47;;;;;;;2.65;1.40;;;;;;;5.09;69.58;96210.69;4836182;29;20262;-39
2022/01/02 05:00:33;;;;;;;3.00;1.55;;;;;;;5.24;69.67;96193.59;4835241;29;20057;-41
2022/01/02 05:03:18;;;;;;;3.03;1.23;;;;;;;5.40;68.95;96194.97;4824090;29;20061;-43
2022/01/02 05:06:04;;;;;;;2.55;1.52;;;;;;;4.74;70.27;96185.16;4823074;29;20056;-40
2022/01/02 05:08:50;;;;;;;3.13;1.75;;;;;;;4.04;73.89;96193.78;4824017;29;20058;-42
2022/01/02 05:11:36;;;;;;;4.03;1.65;;;;;;;3.85;75.25;96191.00;4835192;29;20065;-40
2022/01/02 05:14:21;;;;;;;2.95;1.52;;;;;;;4.04;74.24;96194.56;4824072;29;20054;-40
2022/01/02 05:17:07;;;;;;;2.75;1.50;;;;;;;4.81;70.69;96182.94;4835581;29;20444;-41
2022/01/02 05:19:52;;;;;;;4.85;2.45;;;;;;;5.09;69.26;96176.63;4824462;29;20549;-42
2022/01/02 05:22:38;;;;;;;5.05;1.50;;;;;;;5.31;69.12;96170.66;4836789;29;20147;-41
2022/01/02 05:25:23;;;;;;;4.30;1.60;;;;;;;4.64;71.63;96173.50;4824523;29;20130;-39
2022/01/02 05:28:11;;;;;;;2.65;1.50;;;;;;;5.11;69.86;96171.00;4822995;29;20187;-40
2022/01/02 05:30:57;;;;;;;3.78;1.83;;;;;;;5.20;70.76;96166.56;4823247;29;20081;-39
2022/01/02 05:33:43;;;;;;;3.33;1.58;;;;;;;4.86;71.24;96169.47;4823897;29;20537;-40
2022/01/02 05:36:28;;;;;;;3.10;1.40;;;;;;;3.69;75.57;96161.72;4822708;29;20142;-42
2022/01/02 05:39:16;;;;;;;3.20;1.67;;;;;;;3.25;77.38;96161.81;4823863;29;20058;-41
2022/01/02 05:42:03;;;;;;;2.83;1.45;;;;;;;3.54;77.14;96163.72;4822153;29;20754;-40
2022/01/02 05:44:49;;;;;;;2.90;1.67;;;;;;;4.16;74.03;96165.53;4822604;29;20191;-39
2022/01/02 05:47:38;;;;;;;2.70;1.60;;;;;;;3.62;75.31;96168.47;4823111;29;20069;-42
2022/01/02 05:50:24;;;;;;;4.18;1.70;;;;;;;3.12;77.55;96165.13;4822979;29;20131;-44
2022/01/02 05:53:10;;;;;;;3.00;1.58;;;;;;;3.70;74.51;96170.53;4822082;29;20061;-45
2022/01/02 05:56:00;;;;;;;3.53;1.40;;;;;;;3.55;74.70;96163.47;4821986;29;20052;-46
2022/01/02 05:58:47;;;;;;;3.97;1.73;;;;;;;3.61;75.61;96169.56;4822173;29;20069;-43
2022/01/02 06:01:33;;;;;;;2.70;1.60;;;;;;;4.36;72.23;96152.97;4822455;29;20141;-43
2022/01/02 06:04:18;;;;;;;3.70;1.80;;;;;;;4.68;70.63;96161.13;4823181;29;20077;-46
2022/01/02 06:07:05;;;;;;;4.55;1.63;;;;;;;4.36;72.34;96155.66;4822502;29;20137;-48
2022/01/02 06:09:50;;;;;;;3.80;1.75;;;;;;;4.70;71.35;96155.47;4838556;29;20076;-42
2022/01/02 06:12:36;;;;;;;3.50;1.70;;;;;;;4.78;71.67;96144.13;4853167;29;20060;-44
2022/01/02 06:15:22;;;;;;;4.85;1.80;;;;;;;4.83;70.99;96144.03;4839738;29;20568;-45
2022/01/02 06:18:08;;;;;;;3.67;1.70;;;;;;;4.83;70.77;96125.25;4834170;29;20081;-44
2022/01/02 06:20:53;;;;;;;4.30;1.80;;;;;;;4.22;74.38;96144.81;4821313;29;20061;-45
2022/01/02 06:23:39;;;;;;;3.05;1.50;;;;;;;4.16;74.17;96144.09;4821998;29;20526;-44
2022/01/02 06:26:25;;;;;;;4.78;1.70;;;;;;;2.98;78.60;96152.41;4822005;29;20142;-43
2022/01/02 06:29:10;;;;;;;2.78;1.65;;;;;;;2.61;79.97;96160.91;4822147;29;20123;-41
2022/01/02 06:31:57;;;;;;;2.83;1.33;;;;;;;2.56;80.07;96147.56;4821814;29;20065;-41
2022/01/02 06:34:46;;;;;;;3.80;1.55;;;;;;;2.62;80.62;96137.66;4835296;29;20081;-43
2022/01/02 06:37:32;;;;;;;3.97;1.70;;;;;;;3.56;76.83;96145.53;4822274;29;20127;-42
2022/01/02 06:40:19;;;;;;;3.63;1.83;;;;;;;2.86;80.05;96149.28;4828051;29;20065;-41
2022/01/02 06:43:05;;;;;;;3.30;1.83;;;;;;;2.60;80.50;96150.50;4821602;29;20573;-45
2022/01/02 06:45:50;;;;;;;5.68;1.83;;;;;;;2.52;80.92;96151.88;4822676;29;20057;-43
2022/01/02 06:48:36;;;;;;;2.53;1.58;;;;;;;2.91;78.24;96132.41;4830083;29;20049;-41
2022/01/02 06:51:22;;;;;;;3.28;1.67;;;;;;;3.57;75.43;96129.19;4839470;29;20061;-41
2022/01/02 06:54:07;;;;;;;3.35;1.65;;;;;;;4.23;73.31;96122.31;4825087;29;20057;-42
2022/01/02 06:56:52;;;;;;;2.35;1.50;;;;;;;3.80;75.58;96145.56;4826387;29;20066;-41
2022/01/02 06:59:38;;;;;;;3.13;1.80;;;;;;;3.68;76.02;96140.59;4826318;29;20127;-45
2022/01/02 07:02:23;;;;;;;2.88;1.50;;;;;;;4.17;74.28;96132.28;4849471;29;20179;-42
2022/01/02 07:05:09;;;;;;;3.45;1.80;;;;;;;3.28;77.94;96145.22;4843455;29;20060;-43
2022/01/02 07:07:55;;;;;;;4.85;1.80;;;;;;;3.51;76.94;96147.19;4843170;29;20231;-38
2022/01/02 07:10:42;;;;;;;3.42;1.83;;;;;;;3.31;78.27;96136.63;4841631;29;20056;-39
2022/01/02 07:13:28;;;;;;;5.10;1.73;;;;;;;3.09;78.66;96139.78;4842842;29;20070;-39
2022/01/02 07:16:13;;;;;;;2.72;1.40;;;;;;;3.19;78.16;96141.56;4843688;29;20426;-39
2022/01/02 07:18:58;;;;;;;3.85;1.75;;;;;;;4.00;74.60;96131.97;4837719;29;20153;-39
2022/01/02 07:21:44;;;;;;;2.85;1.40;;;;;;;3.80;75.75;96141.00;4824240;29;20060;-40
2022/01/02 07:24:29;;;;;;;3.30;1.70;;;;;;;3.66;76.27;96138.19;4825436;29;20060;-39
2022/01/02 07:27:14;;;;;;;3.25;1.88;;;;;;;4.68;72.33;96139.69;4825301;29;20070;-40
2022/01/02 07:30:00;;;;;;;3.60;1.75;;;;;;;4.84;71.38;96120.69;4826036;29;20420;-43
2022/01/02 07:32:46;;;;;;;4.78;2.13;;;;;;;4.96;71.26;96125.63;4825253;29;20574;-44
2022/01/02 07:35:31;;;;;;;4.00;2.00;;;;;;;3.69;75.66;96132.28;4825442;29;20065;-39
2022/01/02 07:38:32;;;;;;;3.13;1.80;;;;;;;4.46;74.12;96131.41;4825266;29;20150;-39
2022/01/02 07:41:19;;;;;;;4.03;2.20;;;;;;;4.44;73.98;96131.69;4824367;29;20574;-39
2022/01/02 07:44:04;;;;;;;3.78;1.90;;;;;;;4.90;71.87;96123.00;4825159;29;20060;-42
2022/01/02 07:46:49;;;;;;;4.68;1.92;;;;;;;5.09;71.16;96125.69;4825104;29;20142;-40
2022/01/02 07:49:38;;;;;;;5.47;2.47;;;;;;;5.12;71.15;96113.56;4825302;29;20424;-41
2022/01/02 07:52:26;;;;;;;6.90;2.60;;;;;;;5.37;70.24;96112.38;4826694;29;20470;-40
2022/01/02 07:55:11;;;;;;;4.25;2.00;;;;;;;5.06;69.96;96102.13;4825035;29;20126;-40
2022/01/02 07:57:56;;;;;;;3.80;1.85;;;;;;;4.68;71.49;96104.06;4824642;29;20183;-41
2022/01/02 08:00:43;;;;;;;4.35;1.50;;;;;;;4.50;71.76;96102.16;4824680;29;20146;-42
2022/01/02 08:03:29;;;;;;;2.83;1.60;;;;;;;5.42;69.42;96098.06;4837102;29;20512;-44
2022/01/02 08:06:14;;;;;;;3.67;1.73;;;;;;;5.16;68.13;96093.91;4824995;29;20074;-43
2022/01/02 08:09:00;;;;;;;3.03;1.60;;;;;;;5.23;67.10;96101.59;4824932;29;20056;-42
2022/01/02 08:11:49;;;;;;;2.88;1.42;;;;;;;5.73;67.02;96090.28;4825399;29;20072;-42
2022/01/02 08:14:34;;;;;;;3.20;1.55;;;;;;;5.88;65.13;96097.22;4824783;29;20110;-42
2022/01/02 08:17:20;;;;;;;2.65;1.27;;;;;;;6.08;64.12;96096.88;4825348;29;20432;-40
2022/01/02 08:20:06;;;;;;;3.15;1.42;;;;;;;6.16;65.72;96098.84;4824015;29;20103;-42
2022/01/02 08:22:52;;;;;;;3.35;1.50;;;;;;;5.71;65.64;96100.50;4824435;29;20473;-41
2022/01/02 08:25:39;;;;;;;2.75;1.35;;;;;;;5.88;63.65;96105.28;4826412;29;20061;-42
2022/01/02 08:28:25;;;;;;;4.15;1.27;;;;;;;6.46;63.94;96104.69;4825735;29;20065;-42
2022/01/02 08:31:11;;;;;;;4.32;1.50;;;;;;;6.71;63.51;96096.06;4825011;29;20088;-41
2022/01/02 08:33:58;;;;;;;5.53;2.53;;;;;;;6.91;62.56;96088.66;4825311;29;20417;-39
2022/01/02 08:36:43;;;;;;;3.50;1.90;;;;;;;6.71;62.73;96093.38;4823393;29;20068;-39
2022/01/02 08:39:29;;;;;;;3.35;1.58;;;;;;;6.81;61.91;96081.59;4824958;29;20104;-43
2022/01/02 08:42:16;;;;;;;3.58;1.42;;;;;;;7.13;61.58;96088.66;4824374;29;20070;-41
2022/01/02 08:45:02;;;;;;;2.67;1.17;;;;;;;7.43;60.60;96094.38;4824979;29;20057;-44
2022/01/02 08:47:48;;;;;;;3.92;1.50;;;;;;;6.83;59.02;96089.38;4823494;29;20130;-40
2022/01/02 08:50:34;;;;;;;10.43;2.38;;;;;;;7.09;60.57;96085.00;4839677;29;20053;-41
2022/01/02 08:53:19;;;;;;;2.38;1.25;;;;;;;7.37;58.59;96080.25;4824275;29;20065;-41
2022/01/02 08:56:04;;;;;;;1.92;1.10;;;;;;;7.39;60.33;96094.22;4824232;29;20061;-43
2022/01/02 08:58:50;;;;;;;2.45;1.33;;;;;;;6.93;58.14;96089.16;4824032;29;20198;-44
2022/01/02 09:01:35;;;;;;;2.80;1.23;;;;;;;7.34;59.60;96074.69;4823331;29;20057;-46
2022/01/02 09:04:21;;;;;;;2.40;1.30;;;;;;;7.31;59.90;96078.00;4824153;29;20183;-43
2022/01/02 09:07:07;;;;;;;3.08;1.40;;;;;;;7.75;59.01;96063.66;4823984;29;20061;-43
2022/01/02 09:09:52;;;;;;;3.03;1.27;;;;;;;7.90;58.67;96078.63;4824338;29;20542;-41
2022/01/02 09:12:38;;;;;;;3.72;1.60;;;;;;;7.80;59.09;96074.31;4824392;29;20418;-42
2022/01/02 09:15:23;;;;;;;2.72;1.42;;;;;;;7.64;59.05;96071.22;4824190;29;20543;-47
2022/01/02 09:18:08;;;;;;;4.40;1.60;;;;;;;7.73;58.49;96068.56;4823674;29;20057;-41
2022/01/02 09:20:54;;;;;;;2.28;1.23;;;;;;;7.81;57.87;96061.63;4823026;29;20207;-43
2022/01/02 09:23:40;;;;;;;2.20;1.25;;;;;;;7.83;57.87;96071.00;4824143;29;20070;-43
2022/01/02 09:26:25;;;;;;;2.20;1.27;;;;;;;7.81;57.83;96064.34;4823924;29;20065;-39
2022/01/02 09:29:10;;;;;;;2.22;1.20;;;;;;;7.89;57.54;96066.25;4824765;29;20531;-41
2022/01/02 09:31:59;;;;;;;3.08;1.23;;;;;;;7.97;56.57;96058.22;4845222;29;20122;-43
2022/01/02 09:34:45;;;;;;;2.40;1.20;;;;;;;8.43;53.67;96066.91;4842796;29;20429;-41
2022/01/02 09:37:34;;;;;;;2.65;1.40;;;;;;;8.23;55.62;96059.41;4843559;29;20589;-41
2022/01/02 09:40:19;;;;;;;2.95;1.40;;;;;;;8.25;56.07;96063.34;4825162;29;20057;-43
2022/01/02 09:43:04;;;;;;;2.38;1.23;;;;;;;8.45;55.01;96075.50;4824716;29;20554;-43
2022/01/02 09:45:53;;;;;;;3.13;1.50;;;;;;;8.83;54.14;96072.97;4823772;29;20111;-40
2022/01/02 09:48:40;;;;;;;3.55;1.45;;;;;;;9.02;53.63;96075.34;4841800;29;20057;-42
2022/01/02 09:51:26;;;;;;;4.43;1.92;;;;;;;8.88;53.97;96070.13;4837585;29;20070;-47
2022/01/02 09:54:13;;;;;;;5.10;2.05;;;;;;;9.06;53.37;96070.09;4835349;29;20064;-46
2022/01/02 09:56:40;;;;;;;3.67;1.80;;;;;;;9.02;53.73;96066.47;4822056;29;20059;-42
2022/01/02 09:59:07;;;;;;;2.70;1.20;;;;;;;9.10;52.63;96074.56;4821988;29;20058;-42
2022/01/02 10:01:34;;;;;;;1.73;1.13;;;;;;;9.23;52.39;96070.09;4821364;29;20140;-46
2022/01/02 10:04:02;;;;;;;1.92;1.20;;;;;;;9.28;51.42;96069.13;4823261;29;20058;-43
2022/01/02 10:06:41;;;;;;;1.10;0.90;;;;;;;9.63;50.89;96064.47;4821995;29;20528;-45
2022/01/02 10:09:32;;;;;;;2.58;1.00;;;;;;;9.69;50.68;96065.09;4822067;29;20057;-43
2022/01/02 10:12:28;;;;;;;1.73;0.93;;;;;;;10.10;50.08;96061.72;4822572;29;20058;-44
2022/01/02 10:15:08;;;;;;;1.98;1.10;;;;;;;10.22;47.54;96066.44;4822270;29;20046;-43
2022/01/02 10:18:02;;;;;;;1.90;0.90;;;;;;;10.33;48.81;96058.75;4823124;29;20133;-39
2022/01/02 10:20:32;;;;;;;1.65;0.90;;;;;;;10.58;48.04;96049.69;4821082;29;20062;-44
2022/01/02 10:23:09;;;;;;;1.50;0.90;;;;;;;10.36;48.64;96050.78;4822829;29;20057;-44
2022/01/02 10:25:56;;;;;;;1.80;1.00;;;;;;;10.24;48.65;96037.97;4823257;29;20054;-45
2022/01/02 10:28:26;;;;;;;2.15;1.15;;;;;;;10.34;48.78;96036.03;4823166;29;20193;-45
2022/01/02 10:30:57;;;;;;;2.13;1.08;;;;;;;10.34;48.56;96038.72;4822686;29;20062;-40
2022/01/02 10:33:26;;;;;;;1.60;1.00;;;;;;;10.39;48.20;96033.91;4822296;29;20087;-41
2022/01/02 10:35:58;;;;;;;1.50;1.00;;;;;;;10.46;48.25;96028.78;4836692;29;20110;-41
2022/01/02 10:38:25;;;;;;;2.05;1.00;;;;;;;10.52;48.33;96024.75;4822674;29;20054;-40
2022/01/02 10:40:52;;;;;;;4.05;1.20;;;;;;;10.61;47.50;96032.03;4822296;29;20042;-39
2022/01/02 10:43:28;;;;;;;1.73;1.00;;;;;;;10.75;47.45;96025.22;4822745;29;20051;-45
2022/01/02 10:46:03;;;;;;;1.48;0.80;;;;;;;10.78;47.54;96031.88;4822640;29;20072;-40
2022/01/02 10:48:38;;;;;;;1.63;0.90;;;;;;;10.83;47.04;96023.56;4822674;29;20054;-40
2022/01/02 10:51:08;;;;;;;2.83;1.10;;;;;;;11.10;46.36;96019.50;4821911;29;20527;-42
2022/01/02 10:53:38;;;;;;;2.03;0.90;;;;;;;11.21;46.34;96017.97;4822519;29;20165;-41
2022/01/02 10:56:06;;;;;;;2.83;1.08;;;;;;;11.31;46.13;96018.66;4821530;29;20424;-43
2022/01/02 10:58:34;;;;;;;2.05;0.88;;;;;;;11.53;45.83;96012.84;4822343;29;20524;-41
2022/01/02 11:01:05;;;;;;;2.28;1.02;;;;;;;11.49;45.82;96003.03;4832183;29;20048;-40
2022/01/02 11:03:33;;;;;;;1.88;0.80;;;;;;;11.66;45.64;96002.81;4840807;29;20484;-40
2022/01/02 11:06:10;;;;;;;1.50;0.90;;;;;;;11.74;44.59;96001.16;4840736;29;20095;-41
2022/01/02 11:08:43;;;;;;;2.15;1.02;;;;;;;11.91;44.87;96004.44;4828192;29;20046;-46
2022/01/02 11:11:10;;;;;;;1.70;0.90;;;;;;;12.12;44.40;95992.69;4821864;29;20050;-42
2022/01/02 11:13:38;;;;;;;2.08;1.02;;;;;;;12.21;44.06;96006.13;4822476;29;20054;-43
2022/01/02 11:16:05;;;;;;;5.78;1.10;;;;;;;12.33;43.87;95995.28;4822083;29;20054;-44
2022/01/02 11:18:34;;;;;;;1.90;1.30;;;;;;;12.45;42.88;95995.25;4822690;29;20424;-45
2022/01/02 11:21:04;;;;;;;1.67;1.10;;;;;;;12.64;41.30;95994.63;4835322;29;20448;-45
2022/01/02 11:23:45;;;;;;;1.58;0.80;;;;;;;13.09;40.82;95997.06;4822218;29;20129;-43
2022/01/02 11:26:21;;;;;;;1.45;0.95;;;;;;;13.90;39.58;95996.84;4822082;29;20059;-43
2022/01/02 11:29:08;;;;;;;1.33;0.90;;;;;;;14.52;34.89;95993.59;4835777;29;20078;-46
2022/01/02 11:31:40;;;;;;;1.80;0.90;;;;;;;14.99;36.95;95996.16;4836066;29;20145;-44
2022/01/02 11:34:32;;;;;;;1.10;0.70;;;;;;;15.49;35.36;95996.31;4823907;29;20178;-47
2022/01/02 11:37:11;;;;;;;1.65;0.90;;;;;;;16.07;34.25;95994.19;4825321;29;20046;-45
2022/01/02 11:39:56;;;;;;;1.00;0.68;;;;;;;16.73;33.52;95994.75;4824966;29;20050;-43
2022/01/02 11:42:36;;;;;;;1.42;0.70;;;;;;;17.22;32.49;95979.34;4824414;29;20051;-43
2022/01/02 11:45:05;;;;;;;0.93;0.88;;;;;;;17.88;31.54;95988.66;4825296;29;20046;-44
2022/01/02 11:47:46;;;;;;;2.22;0.73;;;;;;;17.69;31.68;95972.41;4824918;29;20470;-44
2022/01/02 11:50:32;;;;;;;1.38;0.70;;;;;;;17.08;32.45;95974.53;4825085;29;20129;-43
2022/01/02 11:53:23;;;;;;;1.15;0.57;;;;;;;16.25;33.46;95952.72;4824768;29;20054;-44
2022/01/02 11:55:52;;;;;;;0.73;0.60;;;;;;;16.15;33.78;95956.09;4825169;29;20133;-46
2022/01/02 11:58:43;;;;;;;3.92;0.82;;;;;;;16.59;31.59;95943.47;4825609;29;20345;-44
2022/01/02 12:01:10;;;;;;;0.88;0.77;;;;;;;17.29;32.44;95935.72;4824015;29;20052;-45
2022/01/02 12:03:40;;;;;;;1.17;0.77;;;;;;;16.70;32.84;95931.88;4823546;29;20053;-45
2022/01/02 12:06:37;;;;;;;1.77;0.93;;;;;;;15.78;33.63;95919.28;4825185;29;20060;-44
2022/01/02 12:09:25;;;;;;;1.33;0.90;;;;;;;15.61;34.16;95927.97;4816806;29;20440;-46
2022/01/02 12:11:59;;;;;;;2.35;0.90;;;;;;;15.41;34.03;95929.97;4842583;29;20050;-43
2022/01/02 12:14:26;;;;;;;2.35;1.00;;;;;;;15.44;33.41;95931.97;4843027;29;20060;-45
2022/01/02 12:17:12;;;;;;;1.98;0.90;;;;;;;15.15;34.63;95936.91;4842979;29;20612;-44
2022/01/02 12:20:04;;;;;;;1.20;0.70;;;;;;;15.13;34.70;95943.88;4824790;29;20061;-46
2022/01/02 12:22:44;;;;;;;1.33;0.68;;;;;;;14.83;34.24;95943.69;4823814;29;20099;-47
2022/01/02 12:25:20;;;;;;;1.83;0.82;;;;;;;15.14;35.42;95943.53;4824452;29;20085;-47
2022/01/02 12:27:54;;;;;;;0.85;0.75;;;;;;;15.30;35.14;95948.06;4824799;29;20057;-46
2022/01/02 12:30:23;;;;;;;0.90;0.70;;;;;;;14.99;35.38;95941.66;4826400;29;20066;-44
2022/01/02 12:32:50;;;;;;;1.38;0.73;;;;;;;14.95;35.64;95938.09;4842265;29;20416;-44
2022/01/02 12:35:17;;;;;;;1.90;0.75;;;;;;;14.66;34.53;95953.09;4842853;29;20050;-47
2022/01/02 12:37:45;;;;;;;1.63;0.60;;;;;;;14.70;35.83;95943.81;4842683;29;20432;-45
2022/01/02 12:40:16;;;;;;;1.25;0.82;;;;;;;14.73;35.45;95945.84;4835892;29;20046;-46
2022/01/02 12:42:45;;;;;;;1.13;0.70;;;;;;;14.52;35.43;95936.44;4823717;29;20458;-44
2022/01/02 12:45:15;;;;;;;1.33;0.63;;;;;;;14.62;35.59;95944.03;4823938;29;20050;-44
2022/01/02 12:47:50;;;;;;;1.48;0.90;;;;;;;14.60;36.61;95952.56;4823959;29;20058;-48
2022/01/02 12:50:27;;;;;;;1.40;0.88;;;;;;;14.56;36.63;95951.72;4824073;29;20070;-44
2022/01/02 12:52:56;;;;;;;1.25;0.70;;;;;;;14.46;36.35;95950.31;4837379;29;20058;-45
2022/01/02 12:55:24;;;;;;;2.42;0.65;;;;;;;14.45;36.58;95945.22;4842035;29;20054;-46
2022/01/02 12:58:02;;;;;;;1.05;0.60;;;;;;;14.55;35.88;95947.41;4842200;29;20056;-43
2022/01/02 13:00:29;;;;;;;0.85;0.50;;;;;;;14.61;35.36;95954.13;4839449;29;20056;-41
2022/01/02 13:02:57;;;;;;;1.20;0.75;;;;;;;14.65;34.34;95954.22;4823697;29;20057;-42